createdAt,value
2018-10-16T00:02:25.663Z,94.44
2018-10-16T00:04:55.994Z,94.75
2018-10-16T00:07:26.139Z,94.98
2018-10-16T00:09:56.340Z,95.92
2018-10-16T00:12:26.642Z,96.10
2018-10-16T00:14:56.795Z,95.33
2018-10-16T00:17:26.961Z,96.83
2018-10-16T00:19:57.125Z,96.53
2018-10-16T00:22:27.311Z,94.65
2018-10-16T00:24:57.477Z,95.28
2018-10-16T00:27:27.827Z,96.40
2018-10-16T00:29:58.003Z,97.31
2018-10-16T00:32:28.498Z,96.79
2018-10-16T00:34:58.666Z,96.05
2018-10-16T00:37:29.220Z,95.55
2018-10-16T00:39:59.591Z,95.71
2018-10-16T00:42:29.804Z,96.28
2018-10-16T00:45:00.288Z,96.45
2018-10-16T00:47:30.629Z,96.68
2018-10-16T00:50:00.903Z,96.25
2018-10-16T00:52:31.095Z,97.20
2018-10-16T00:55:02.073Z,97.30
2018-10-16T00:57:32.227Z,98.15
2018-10-16T01:00:02.825Z,98.12
2018-10-16T01:02:33.079Z,97.59
2018-10-16T01:05:04.268Z,97.89
2018-10-16T01:07:34.579Z,98.61
2018-10-16T01:10:04.943Z,98.07
2018-10-16T01:12:35.074Z,98.53
2018-10-16T01:15:05.323Z,97.32
2018-10-16T01:17:35.537Z,97.11
2018-10-16T01:20:06.292Z,96.64
2018-10-16T01:22:36.455Z,96.69
2018-10-16T01:25:07.874Z,95.77
2018-10-16T01:27:38.475Z,95.25
2018-10-16T01:30:08.923Z,96.23
2018-10-16T01:32:39.401Z,96.31
2018-10-16T01:35:11.270Z,95.88
2018-10-16T01:37:41.808Z,95.15
2018-10-16T01:40:12.330Z,95.76
2018-10-16T01:42:42.619Z,96.22
2018-10-16T01:45:12.672Z,96.38
2018-10-16T01:47:42.971Z,95.32
2018-10-16T01:50:13.456Z,95.70
2018-10-16T01:52:43.755Z,95.70
2018-10-16T01:55:13.972Z,95.86
2018-10-16T01:57:44.264Z,94.74
2018-10-16T02:00:14.383Z,94.17
2018-10-16T02:02:44.758Z,94.26
2018-10-16T02:05:17.019Z,94.28
2018-10-16T02:07:47.491Z,94.13
2018-10-16T02:10:18.814Z,94.86
2018-10-16T02:12:49.059Z,95.75
2018-10-16T02:15:24.355Z,96.35
2018-10-16T02:17:54.623Z,95.49
2018-10-16T02:20:24.908Z,96.03
2018-10-16T02:22:55.244Z,96.39
2018-10-16T02:25:25.814Z,96.18
2018-10-16T02:27:56.186Z,96.14
2018-10-16T02:30:26.437Z,97.07
2018-10-16T02:32:56.703Z,96.68
2018-10-16T02:35:27.879Z,96.24
2018-10-16T02:37:58.074Z,96.28
2018-10-16T02:40:28.352Z,94.96
2018-10-16T02:42:58.514Z,94.21
2018-10-16T02:45:28.700Z,94.27
2018-10-16T02:47:58.838Z,94.09
2018-10-16T02:50:29.123Z,94.92
2018-10-16T02:52:59.679Z,94.41
2018-10-16T02:55:29.994Z,93.75
2018-10-16T02:58:00.709Z,94.04
2018-10-16T03:00:30.749Z,95.80
2018-10-16T03:03:01.464Z,93.55
2018-10-16T03:05:31.943Z,93.91
2018-10-16T03:08:02.943Z,93.93
2018-10-16T03:10:33.184Z,94.24
2018-10-16T03:13:03.704Z,93.77
2018-10-16T03:15:33.875Z,95.11
2018-10-16T03:18:04.018Z,95.81
2018-10-16T03:20:34.227Z,95.41
2018-10-16T03:23:04.481Z,94.44
2018-10-16T03:25:35.078Z,94.99
2018-10-16T03:28:05.279Z,93.36
2018-10-16T03:30:35.405Z,92.66
2018-10-16T03:33:05.732Z,92.46
2018-10-16T03:35:35.755Z,92.78
2018-10-16T03:38:05.983Z,94.87
2018-10-16T03:40:36.144Z,96.89
2018-10-16T03:43:06.474Z,96.64
2018-10-16T03:45:36.727Z,97.56
2018-10-16T03:48:07.286Z,96.24
2018-10-16T03:50:38.264Z,95.71
2018-10-16T03:53:08.419Z,95.87
2018-10-16T03:55:38.611Z,95.96
2018-10-16T03:58:08.810Z,96.40
2018-10-16T04:00:51.594Z,95.92
2018-10-16T04:03:21.788Z,96.15
2018-10-16T04:05:51.980Z,95.47
2018-10-16T04:08:22.079Z,95.71
2018-10-16T04:10:52.222Z,96.35
2018-10-16T04:13:22.611Z,94.80
2018-10-16T04:15:53.086Z,95.10
2018-10-16T04:18:23.290Z,95.45
2018-10-16T04:20:53.492Z,94.73
2018-10-16T04:23:23.711Z,95.07
2018-10-16T04:25:53.827Z,95.06
2018-10-16T04:28:23.885Z,95.87
2018-10-16T04:30:53.919Z,96.14
2018-10-16T04:33:24.187Z,96.45
2018-10-16T04:35:54.375Z,96.17
2018-10-16T04:38:24.698Z,96.48
2018-10-16T04:40:55.233Z,96.21
2018-10-16T04:43:25.355Z,97.28
2018-10-16T04:45:55.451Z,96.60
2018-10-16T04:48:25.741Z,97.58
2018-10-16T04:50:55.776Z,98.12
2018-10-16T04:53:26.162Z,98.05
2018-10-16T04:55:56.594Z,98.37
2018-10-16T04:58:27.126Z,97.89
2018-10-16T05:00:57.248Z,97.50
2018-10-16T05:03:27.448Z,96.47
2018-10-16T05:05:57.621Z,96.53
2018-10-16T05:08:27.791Z,96.80
2018-10-16T05:10:58.069Z,95.89
2018-10-16T05:13:28.155Z,96.49
2018-10-16T05:15:58.211Z,96.02
2018-10-16T05:18:28.509Z,96.59
2018-10-16T05:20:58.503Z,96.32
2018-10-16T05:23:29.439Z,97.32
2018-10-16T05:25:59.509Z,96.38
2018-10-16T05:28:29.890Z,96.01
2018-10-16T05:31:00.410Z,95.86
2018-10-16T05:33:30.586Z,94.75
2018-10-16T05:36:01.106Z,94.58
2018-10-16T05:38:31.178Z,94.39
2018-10-16T05:41:01.595Z,94.64
2018-10-16T05:43:31.627Z,95.83
2018-10-16T05:46:02.112Z,94.02
2018-10-16T05:48:32.378Z,94.83
2018-10-16T05:51:02.866Z,94.24
2018-10-16T05:53:34.832Z,94.41
2018-10-16T05:56:06.807Z,94.09
2018-10-16T05:58:38.237Z,93.55
2018-10-16T06:01:08.405Z,93.52
2018-10-16T06:03:39.930Z,93.92
2018-10-16T06:06:10.525Z,95.01
2018-10-16T06:08:41.814Z,94.41
2018-10-16T06:11:20.256Z,94.13
2018-10-16T06:13:50.400Z,95.24
2018-10-16T06:16:20.875Z,94.50
2018-10-16T06:18:51.423Z,93.53
2018-10-16T06:21:21.661Z,94.32
2018-10-16T06:23:51.746Z,94.54
2018-10-16T06:26:21.964Z,95.30
2018-10-16T06:28:52.448Z,93.34
2018-10-16T06:31:22.817Z,94.44
2018-10-16T06:33:53.384Z,92.86
2018-10-16T06:36:23.578Z,93.38
2018-10-16T06:38:53.922Z,94.09
2018-10-16T06:41:24.342Z,93.20
2018-10-16T06:43:54.501Z,93.33
2018-10-16T06:46:25.404Z,93.72
2018-10-16T06:48:55.829Z,92.76
2018-10-16T06:51:25.811Z,92.58
2018-10-16T06:53:56.175Z,92.41
2018-10-16T06:56:26.244Z,93.34
2018-10-16T06:58:57.489Z,91.57
2018-10-16T07:04:03.931Z,92.69
2018-10-16T07:06:34.487Z,90.66
2018-10-16T07:09:05.228Z,89.83
2018-10-16T07:11:37.255Z,89.88
2018-10-16T07:14:09.743Z,89.91
2018-10-16T07:16:39.890Z,89.42
2018-10-16T07:19:11.402Z,88.71
2018-10-16T07:21:42.217Z,88.07
2018-10-16T07:24:12.314Z,88.01
2018-10-16T07:26:42.557Z,86.78
2018-10-16T07:29:12.650Z,86.93
2018-10-16T07:31:42.660Z,86.72
2018-10-16T07:34:12.648Z,87.46
2018-10-16T07:36:42.808Z,86.77
2018-10-16T07:39:13.953Z,86.80
2018-10-16T07:41:43.964Z,86.51
2018-10-16T07:44:14.129Z,85.52
2018-10-16T07:46:44.105Z,85.44
2018-10-16T07:49:14.173Z,85.60
2018-10-16T07:51:44.366Z,87.00
2018-10-16T07:54:15.240Z,83.61
2018-10-16T07:56:45.297Z,84.50
2018-10-16T07:59:15.614Z,83.95
2018-10-16T08:01:45.674Z,84.58
2018-10-16T08:04:15.738Z,83.51
2018-10-16T08:06:51.909Z,83.70
2018-10-16T08:09:22.939Z,82.01
2018-10-16T08:11:53.381Z,80.99
2018-10-16T08:14:23.574Z,80.15
2018-10-16T08:16:53.748Z,81.08
2018-10-16T08:19:23.802Z,79.38
2018-10-16T08:21:53.906Z,79.38
2018-10-16T08:24:23.878Z,77.13
2018-10-16T08:26:53.935Z,75.23
2018-10-16T08:29:23.913Z,74.08
2018-10-16T08:31:53.998Z,73.75
2018-10-16T08:34:24.040Z,74.22
2018-10-16T08:36:54.175Z,74.64
2018-10-16T08:39:28.132Z,73.75
2018-10-16T08:44:17.197Z,72.96
2018-10-16T08:46:58.248Z,70.60
2018-10-16T08:49:40.079Z,69.65
2018-10-16T08:52:13.008Z,71.28
2018-10-16T08:54:43.277Z,69.95
2018-10-16T08:57:13.367Z,69.07
2018-10-16T08:59:43.347Z,68.75
2018-10-16T09:02:13.475Z,69.18
2018-10-16T09:04:43.669Z,69.05
2018-10-16T09:07:13.748Z,69.76
2018-10-16T09:09:43.716Z,68.05
2018-10-16T09:12:14.054Z,67.95
2018-10-16T09:14:44.407Z,68.62
2018-10-16T09:17:14.584Z,67.18
2018-10-16T09:19:44.802Z,67.37
2018-10-16T09:22:14.778Z,68.54
2018-10-16T09:24:44.834Z,70.61
2018-10-16T09:27:14.925Z,69.98
2018-10-16T09:29:45.536Z,69.47
2018-10-16T09:32:15.849Z,69.71
2018-10-16T09:34:45.977Z,71.50
2018-10-16T09:37:16.712Z,71.01
2018-10-16T09:39:46.886Z,71.23
2018-10-16T09:45:20.126Z,71.56
2018-10-16T09:47:50.390Z,71.82
2018-10-16T09:50:22.468Z,71.99
2018-10-16T09:52:52.645Z,71.82
2018-10-16T09:55:22.920Z,69.86
2018-10-16T09:57:53.341Z,70.33
2018-10-16T10:00:29.615Z,67.71
2018-10-16T10:03:00.043Z,68.54
2018-10-16T10:05:30.260Z,66.43
2018-10-16T10:08:00.828Z,66.76
2018-10-16T10:10:30.993Z,66.42
2018-10-16T10:13:01.258Z,66.29
2018-10-16T10:15:31.380Z,66.49
2018-10-16T10:18:01.706Z,65.16
2018-10-16T10:20:31.910Z,64.83
2018-10-16T10:23:02.641Z,64.09
2018-10-16T10:25:44.517Z,62.54
2018-10-16T10:28:14.689Z,63.00
2018-10-16T10:30:44.731Z,62.98
2018-10-16T10:33:14.852Z,63.46
2018-10-16T10:35:44.827Z,63.83
2018-10-16T10:38:14.869Z,64.84
2018-10-16T10:40:45.972Z,65.30
2018-10-16T10:43:16.470Z,65.38
2018-10-16T10:45:46.525Z,64.49
2018-10-16T10:48:16.685Z,66.92
2018-10-16T10:50:46.791Z,66.43
2018-10-16T10:53:16.723Z,66.08
2018-10-16T10:55:46.745Z,67.68
2018-10-16T10:58:16.862Z,68.07
2018-10-16T11:00:46.970Z,67.81
2018-10-16T11:03:17.080Z,68.72
2018-10-16T11:05:47.176Z,68.56
2018-10-16T11:08:17.561Z,71.06
2018-10-16T11:10:47.811Z,71.98
2018-10-16T11:13:17.910Z,71.59
2018-10-16T11:15:48.023Z,71.15
2018-10-16T11:18:18.136Z,73.41
2018-10-16T11:20:48.216Z,74.17
2018-10-16T11:23:18.313Z,73.23
2018-10-16T11:25:48.540Z,73.46
2018-10-16T11:28:18.629Z,73.96
2018-10-16T11:30:48.929Z,73.54
2018-10-16T11:33:19.012Z,72.44
2018-10-16T11:35:49.120Z,71.71
2018-10-16T11:38:19.337Z,73.01
2018-10-16T11:40:49.497Z,71.87
2018-10-16T11:43:19.574Z,75.12
2018-10-16T11:45:49.748Z,76.18
2018-10-16T11:48:20.217Z,78.83
2018-10-16T11:50:50.296Z,77.73
2018-10-16T11:53:20.444Z,76.22
2018-10-16T11:55:50.618Z,77.22
2018-10-16T11:58:20.596Z,74.45
2018-10-16T12:00:50.875Z,75.74
2018-10-16T12:03:21.045Z,75.68
2018-10-16T12:05:51.166Z,76.44
2018-10-16T12:08:21.259Z,74.66
2018-10-16T12:10:51.403Z,74.15
2018-10-16T12:13:21.428Z,73.63
2018-10-16T12:15:51.395Z,74.73
2018-10-16T12:18:25.533Z,74.44
2018-10-16T12:21:00.761Z,74.48
2018-10-16T12:23:31.162Z,74.52
2018-10-16T12:26:01.898Z,75.45
2018-10-16T12:31:29.172Z,74.22
2018-10-16T12:37:09.484Z,74.72
2018-10-16T12:39:40.480Z,75.23
2018-10-16T12:42:10.704Z,75.50
2018-10-16T12:44:49.192Z,74.52
2018-10-16T12:47:19.273Z,74.45
2018-10-16T12:49:49.561Z,74.79
2018-10-16T12:52:19.647Z,72.66
2018-10-16T12:54:49.814Z,72.21
2018-10-16T12:57:19.861Z,73.76
2018-10-16T12:59:49.920Z,73.61
2018-10-16T13:02:20.029Z,72.99
2018-10-16T13:04:50.101Z,73.06
2018-10-16T13:07:29.217Z,73.05
2018-10-16T13:09:59.357Z,73.46
2018-10-16T13:12:40.341Z,72.03
2018-10-16T13:15:11.882Z,71.56
2018-10-16T13:17:44.572Z,72.03
2018-10-16T13:20:17.788Z,71.77
2018-10-16T13:22:49.480Z,71.64
2018-10-16T13:25:19.947Z,70.40
2018-10-16T13:27:51.031Z,72.01
2018-10-16T13:30:41.417Z,71.91
2018-10-16T13:33:11.847Z,72.42
2018-10-16T13:35:41.838Z,71.79
2018-10-16T13:38:12.473Z,72.31
2018-10-16T13:40:42.457Z,72.86
2018-10-16T13:43:12.313Z,73.84
2018-10-16T13:45:42.500Z,73.47
2018-10-16T13:48:12.534Z,73.34
2018-10-16T13:50:42.624Z,74.15
2018-10-16T13:53:12.825Z,72.83
2018-10-16T13:55:42.849Z,74.64
2018-10-16T13:58:13.104Z,74.39
2018-10-16T14:00:44.260Z,75.65
2018-10-16T14:03:16.304Z,76.81
2018-10-16T14:05:46.293Z,77.52
2018-10-16T14:08:16.409Z,77.43
2018-10-16T14:10:46.454Z,78.06
2018-10-16T14:13:16.515Z,78.55
2018-10-16T14:15:46.388Z,78.66
2018-10-16T14:18:16.439Z,77.11
2018-10-16T14:20:46.556Z,77.07
2018-10-16T14:23:16.732Z,78.88
2018-10-16T14:25:47.021Z,79.91
2018-10-16T14:28:19.249Z,81.01
2018-10-16T14:30:50.010Z,83.48
2018-10-16T14:33:19.923Z,85.00
2018-10-16T14:35:50.893Z,86.07
2018-10-16T14:38:35.769Z,88.89
2018-10-16T14:41:19.006Z,90.33
2018-10-16T14:44:10.788Z,90.75
2018-10-16T14:46:41.765Z,91.83
2018-10-16T14:49:15.931Z,91.60
2018-10-16T14:51:53.866Z,93.37
2018-10-16T14:54:47.434Z,94.25
2018-10-16T14:57:17.760Z,95.11
2018-10-16T14:59:47.717Z,92.32
2018-10-16T15:02:17.940Z,94.43
2018-10-16T15:04:48.200Z,93.22
2018-10-16T15:07:18.400Z,93.91
2018-10-16T15:09:48.572Z,94.97
2018-10-16T15:12:20.448Z,95.14
2018-10-16T15:14:50.643Z,96.06
2018-10-16T15:17:20.812Z,95.72
2018-10-16T15:19:50.918Z,95.91
2018-10-16T15:22:21.379Z,96.67
2018-10-16T15:24:51.340Z,97.60
2018-10-16T15:27:21.817Z,98.98
2018-10-16T15:29:52.482Z,97.10
2018-10-16T15:32:22.706Z,94.73
2018-10-16T15:34:52.622Z,96.28
2018-10-16T15:37:22.859Z,96.90
2018-10-16T15:39:52.995Z,96.39
2018-10-16T15:42:23.511Z,97.64
2018-10-16T15:44:54.260Z,94.60
2018-10-16T15:47:24.372Z,94.77
2018-10-16T15:49:54.552Z,95.97
2018-10-16T15:52:24.626Z,95.94
2018-10-16T15:54:54.778Z,95.97
2018-10-16T15:57:24.935Z,95.63
2018-10-16T15:59:55.158Z,94.89
2018-10-16T16:02:25.745Z,94.69
2018-10-16T16:04:56.209Z,94.81
2018-10-16T16:07:26.476Z,95.05
2018-10-16T16:09:56.587Z,96.95
2018-10-16T16:12:26.849Z,96.67
2018-10-16T16:14:57.518Z,96.71
2018-10-16T16:17:27.659Z,96.62
2018-10-16T16:19:57.721Z,95.45
2018-10-16T16:22:27.917Z,96.79
2018-10-16T16:24:58.096Z,96.58
2018-10-16T16:27:38.622Z,99.46
2018-10-16T16:30:47.081Z,100.00
2018-10-16T16:33:35.648Z,100.00
2018-10-16T16:36:21.764Z,100.00
2018-10-16T16:39:13.042Z,100.00
2018-10-16T16:41:43.938Z,100.00
2018-10-16T16:44:14.115Z,100.00
2018-10-16T16:46:44.261Z,100.00
2018-10-16T16:49:14.330Z,100.00
2018-10-16T16:51:44.485Z,100.00
2018-10-16T16:54:15.921Z,100.00
2018-10-16T16:56:45.941Z,100.00
2018-10-16T16:59:16.142Z,100.00
2018-10-16T17:01:46.578Z,100.00
2018-10-16T17:04:16.824Z,100.00
2018-10-16T17:06:47.894Z,100.00
2018-10-16T17:09:17.977Z,100.00
2018-10-16T17:11:48.121Z,100.00
2018-10-16T17:14:18.347Z,100.00
2018-10-16T17:16:48.529Z,100.00
2018-10-16T17:19:18.625Z,100.00
2018-10-16T17:21:48.877Z,100.00
2018-10-16T17:24:19.016Z,100.00
2018-10-16T17:26:49.524Z,100.00
2018-10-16T17:29:19.577Z,100.00
2018-10-16T17:31:49.583Z,100.00
2018-10-16T17:34:19.757Z,100.00
2018-10-16T17:36:50.124Z,100.00
2018-10-16T17:39:20.522Z,100.00
2018-10-16T17:41:50.619Z,100.00
2018-10-16T17:44:20.892Z,100.00
2018-10-16T17:46:51.026Z,100.00
2018-10-16T17:49:21.134Z,100.00
2018-10-16T17:51:51.206Z,100.00
2018-10-16T17:54:21.715Z,100.00
2018-10-16T17:56:52.159Z,100.00
2018-10-16T17:59:23.585Z,100.00
2018-10-16T18:01:54.309Z,100.00
2018-10-16T18:04:24.672Z,100.00
2018-10-16T18:06:54.699Z,100.00
2018-10-16T18:09:25.315Z,100.00
2018-10-16T18:11:55.779Z,100.00
2018-10-16T18:14:26.138Z,100.00
2018-10-16T18:16:56.607Z,100.00
2018-10-16T18:19:27.860Z,100.00
2018-10-16T18:22:01.874Z,100.00
2018-10-16T18:24:32.401Z,100.00
2018-10-16T18:27:03.313Z,100.00
2018-10-16T18:29:33.531Z,100.00
2018-10-16T18:32:04.317Z,100.00
2018-10-16T18:34:38.614Z,100.00
2018-10-16T18:37:19.518Z,100.00
2018-10-16T18:40:00.324Z,100.00
2018-10-16T18:42:39.685Z,100.00
2018-10-16T18:45:28.953Z,100.00
2018-10-16T18:48:01.058Z,100.00
2018-10-16T18:50:31.508Z,100.00
2018-10-16T18:53:02.144Z,100.00
2018-10-16T18:55:32.597Z,100.00
2018-10-16T18:58:03.547Z,100.00
2018-10-16T19:00:37.524Z,100.00
2018-10-16T19:03:08.510Z,100.00
2018-10-16T19:05:38.604Z,100.00
2018-10-16T19:08:08.673Z,100.00
2018-10-16T19:10:38.879Z,100.00
2018-10-16T19:13:08.956Z,100.00
2018-10-16T19:15:40.017Z,100.00
2018-10-16T19:18:09.991Z,100.00
2018-10-16T19:20:40.252Z,100.00
2018-10-16T19:23:11.439Z,100.00
2018-10-16T19:25:41.551Z,100.00
2018-10-16T19:28:11.751Z,100.00
2018-10-16T19:30:42.747Z,100.00
2018-10-16T19:33:13.218Z,100.00
2018-10-16T19:35:43.409Z,100.00
2018-10-16T19:38:14.567Z,100.00
2018-10-16T19:40:45.041Z,100.00
2018-10-16T19:43:15.408Z,100.00
2018-10-16T19:45:45.803Z,100.00
2018-10-16T19:48:16.371Z,100.00
2018-10-16T19:50:46.616Z,100.00
2018-10-16T19:53:18.979Z,100.00
2018-10-16T19:55:49.396Z,100.00
2018-10-16T20:01:24.054Z,100.00
2018-10-16T20:07:03.591Z,100.00
2018-10-16T20:09:33.707Z,100.00
2018-10-16T20:12:04.271Z,100.00
2018-10-16T20:14:34.643Z,100.00
2018-10-16T20:17:04.941Z,100.00
2018-10-16T20:22:31.836Z,100.00
2018-10-16T20:25:03.004Z,100.00
2018-10-16T20:27:33.173Z,100.00
2018-10-16T20:30:04.338Z,100.00
2018-10-16T20:32:36.618Z,100.00
2018-10-16T20:35:07.134Z,100.00
2018-10-16T20:37:39.007Z,100.00
2018-10-16T20:40:23.868Z,100.00
2018-10-16T20:46:10.386Z,100.00
2018-10-16T20:48:53.141Z,100.00
2018-10-16T20:51:23.541Z,100.00
2018-10-16T20:53:53.740Z,100.00
2018-10-16T20:56:23.813Z,100.00
2018-10-16T20:58:54.345Z,100.00
2018-10-16T21:01:24.773Z,100.00
2018-10-16T21:03:57.858Z,100.00
2018-10-16T21:06:35.293Z,100.00
2018-10-16T21:09:06.772Z,100.00
2018-10-16T21:11:38.688Z,100.00
2018-10-16T21:14:09.103Z,100.00
2018-10-16T21:16:39.509Z,100.00
2018-10-16T21:19:09.767Z,100.00
2018-10-16T21:21:40.125Z,100.00
2018-10-16T21:24:10.316Z,100.00
2018-10-16T21:26:40.521Z,100.00
2018-10-16T21:29:10.818Z,100.00
2018-10-16T21:31:40.970Z,100.00
2018-10-16T21:34:11.156Z,100.00
2018-10-16T21:36:41.215Z,100.00
2018-10-16T21:39:11.390Z,100.00
2018-10-16T21:41:41.488Z,100.00
2018-10-16T21:44:11.568Z,100.00
2018-10-16T21:46:41.860Z,100.00
2018-10-16T21:49:12.027Z,100.00
2018-10-16T21:51:42.304Z,100.00
2018-10-16T21:54:13.741Z,100.00
2018-10-16T21:56:44.004Z,100.00
2018-10-16T21:59:14.428Z,100.00
2018-10-16T22:01:49.563Z,100.00
2018-10-16T22:04:19.922Z,100.00
2018-10-16T22:06:49.892Z,100.00
2018-10-16T22:09:19.953Z,100.00
2018-10-16T22:11:50.100Z,100.00
2018-10-16T22:14:20.416Z,100.00
2018-10-16T22:16:50.396Z,100.00
2018-10-16T22:19:20.841Z,100.00
2018-10-16T22:21:50.956Z,100.00
2018-10-16T22:24:21.078Z,100.00
2018-10-16T22:26:51.243Z,100.00
2018-10-16T22:29:21.359Z,100.00
2018-10-16T22:31:51.513Z,100.00
2018-10-16T22:34:21.673Z,100.00
2018-10-16T22:36:52.974Z,100.00
2018-10-16T22:39:23.145Z,100.00
2018-10-16T22:41:53.239Z,100.00
2018-10-16T22:44:23.351Z,100.00
2018-10-16T22:46:54.824Z,100.00
2018-10-16T22:49:25.072Z,100.00
2018-10-16T22:52:14.524Z,100.00
2018-10-16T22:55:27.224Z,100.00
2018-10-16T22:57:57.365Z,100.00
2018-10-16T23:00:27.731Z,100.00
2018-10-16T23:02:57.742Z,100.00
2018-10-16T23:05:27.992Z,100.00
2018-10-16T23:07:58.013Z,100.00
2018-10-16T23:10:28.620Z,100.00
2018-10-16T23:13:08.461Z,100.00
2018-10-16T23:15:38.424Z,100.00
2018-10-16T23:18:08.872Z,100.00
2018-10-16T23:20:39.160Z,100.00
2018-10-16T23:23:09.442Z,100.00
2018-10-16T23:25:39.519Z,100.00
2018-10-16T23:28:10.025Z,100.00
2018-10-16T23:30:40.325Z,100.00
2018-10-16T23:33:10.422Z,100.00
2018-10-16T23:35:40.521Z,100.00
2018-10-16T23:38:10.811Z,100.00
2018-10-16T23:40:41.621Z,100.00
2018-10-16T23:43:12.646Z,100.00
2018-10-16T23:45:42.951Z,100.00
2018-10-16T23:48:12.953Z,100.00
2018-10-16T23:50:43.124Z,100.00
2018-10-16T23:53:15.141Z,100.00
2018-10-16T23:55:50.017Z,100.00
2018-10-16T23:58:20.093Z,100.00
